Little Valley, Nevada Weather observations

Data are for 10 minute period ending at time listed.
 Day   Time    Ave.   Ave.  Ave.  Vector   Max.   Total    Solar   
  of    of     Air    Rel.  Wind   Wind    Wind  Precip.   Rad.    
Year   Day     Temp.  Hum.  Speed  Dir.    Gust                    
2014   (PST)    F      %     mph   deg.    mph     in.     W/m2    
------------------------------------------------------------------- 
 262    0:00   46.0    80    1.0   175      4.0   17.39       0  
 262    1:00   43.0    88    0.0   227      4.0   17.39       0  
 262    2:00   42.0    90    1.0   249      3.0   17.39       0  
 262    3:00   41.0    90    1.0   290      5.0   17.39       0  
 262    4:00   39.0    91    0.0   286      6.0   17.39       0  
 262    5:00   37.0    94    0.0   326      3.0   17.39       0  
 262    6:00   35.0    95    0.0   211      4.0   17.39       0  
 262    7:00   36.0    96    0.0   211      1.0   17.39      11  
 262    8:00   49.0    76    1.0   169      3.0   17.39     180  
 262    9:00   61.0    49    3.0    55      6.0   17.39     377  
 262   10:00   65.0    42    3.0    91      8.0   17.39     559  
 262   11:00   66.0    40    6.0    60     12.0   17.39     707  
 262   12:00   68.0    38    6.0    93     17.0   17.39     808  
 262   13:00   70.0    36    8.0    59     18.0   17.39     836  
 262   14:00   73.0    31    4.0    68     17.0   17.39     791  
 262   15:00   73.0    29    8.0    65     19.0   17.39     684  
 262   16:00   73.0    28    6.0    50     18.0   17.39     525  
 262   17:00   72.0    28    2.0    11     13.0   17.39     305  
 262   18:00   60.0    48    1.0   237      8.0   17.39      24  
 262   19:00   52.0    59    1.0   197      3.0   17.39       4  
 262   20:00   47.0    68    0.0   253      3.0   17.39       0  
 262   21:00   45.0    67    0.0   212      2.0   17.39       0  
 262   22:00   44.0    69    1.0   199      4.0   17.39       0  
 262   23:00   43.0    73    1.0   190      4.0   17.39       0  

Return to Little Valley, Nevada graphs page.


Western Regional Climate Center,wrcc@dri.edu